NY Terminal Aviation Weather Discussion (AFD)
A COLD FRONT PASSES THROUGH TONIGHT WITH ISO/SCT TSTMS WITH BRIEF
MVFR/IFR CONDITIONS AND GUSTY WINDS POSSIBLE. MOST LIKELY THOUGH
IN THE GENERAL TIME WINDOW OF 0130-0330Z FOR THE CITY
TERMINALS...KHPN AND KSWF WHERE THERE IS A ONE HOUR TEMPO FOR
TSRA...02-03Z. OTHERWISE VFR CONDITIONS WITH A S-SW FLOW AROUND
10 KT WITH SOME GUSTS 15-20 KT INTO EARLY EVE BECOMES MORE W-NW
LATE TONIGHT BEHIND THE COLD FRONT WITH THE SAME SUSTAINED SPEEDS.
W-NW FLOW PREVAILS THROUGH WEDNESDAY MORNING WITH SOME BACKING OF
FLOW TO W-SW LATE IN THE AFTERNOON.

*************************************************************************************
KJFK Terminal Weather:

FTNA35 KJFK 022348 RRH
KJFK 022340Z 0300/0406 20012KT P6SM SCT050 BKN250
     FM030200 23012KT P6SM VCSH BKN050 BKN150
     TEMPO 0302/0303 2SM TSRA BKN040CB
     FM030500 27010KT P6SM SCT050 SCT150
     FM031000 32010KT P6SM SCT250
     FM031800 28009KT P6SM SKC
     FM032100 21008KT P6SM SKC
KJFK FCSTER COMMENTS: TIMING OF -TSRA COULD DIFFER +/- 1 HOUR
FROM TAF AND COULD LAST AN EXTRA HOUR THAN IN TAF. TIMING OF SW
WIND SHIFT WEDNESDAY COULD BE OFF BY 1-2 HOURS.

*************************************************************************************
KLGA Terminal Weather:
FTUS80 KLGA 022342 RRB
KLGA 022340Z 0300/0324 23011G17KT P6SM SCT050 BKN250
     FM030200 25009KT P6SM VCSH BKN050 BKN150
      TEMPO 0302/0303 2SM TSRA BKN040CB
     FM030500 28010KT P6SM SCT050 SCT150
     FM031000 32010KT P6SM SCT250
KLGA FCSTER COMMENTS: TIMING OF -TSRA COULD DIFFER +/- 1 HOUR
FROM TAF AND COULD LAST AN EXTRA HOUR THAN IN TAF. AMENDMENTS
POSSIBLE FOR WINDS ON WEDNESDAY AFTERNOON.

*************************************************************************************
KEWR Terminal Weather:
FTUS80 KEWR 022342 RRA
KEWR 022340Z 0300/0406 23011G17KT P6SM SCT050 BKN250
     FM030200 26012KT P6SM VCSH BKN050 BKN150
      TEMPO 0302/0303 2SM TSRA BKN040CB
     FM030500 29009KT P6SM SCT050 SCT150
     FM031000 32010KT P6SM SCT250
     FM031800 28008KT P6SM SKC
KEWR FCSTER COMMENTS: TIMING OF -TSRA COULD DIFFER +/- 1 HOUR
FROM TAF AND COULD LAST AN EXTRA HOUR THAN IN TAF. AMENDMENTS
POSSIBLE FOR WINDS ON WEDNESDAY AFTERNOON.

*************************************************************************************
KTEB Terminal Weather:
FTUS80 KTEB 022342 RRC
KTEB 022340Z 0300/0324 25010KT P6SM SCT050 BKN250
     FM030200 25008KT P6SM VCSH BKN050 BKN150
      TEMPO 0302/0303 2SM TSRA BKN040CB
     FM030500 28008KT P6SM SCT050 SCT150
     FM031000 32008KT P6SM SCT250
     FM032100 28007KT P6SM SKC
KTEB FCSTER COMMENTS: TIMING OF -TSRA COULD DIFFER +/- 1 HOUR
FROM TAF AND COULD LAST AN EXTRA HOUR THAN IN TAF. AMENDMENTS
POSSIBLE FOR WINDS ON WEDNESDAY AFTERNOON.

*************************************************************************************
KHPN Terminal Weather:
FTUS80 KHPN 022342 RRA
KHPN 022340Z 0300/0324 20005KT P6SM SCT040 BKN250
     FM030200 25006KT P6SM VCSH BKN040 BKN150
      TEMPO 0302/0303 2SM TSRA BKN040CB
     FM030500 28008KT P6SM SCT040 SCT120
     FM031000 32009KT P6SM SCT250 AMD NOT SKED
KHPN FCSTER COMMENTS: TIMING OF -TSRA COULD DIFFER +/- 1 HOUR
FROM TAF AND COULD LAST AN EXTRA HOUR THAN IN TAF. AMENDMENTS
POSSIBLE FOR WINDS ON WEDNESDAY AFTERNOON.

*************************************************************************************
KISP Terminal Weather:
FTUS80 KISP 022342 RRB
KISP 022340Z 0300/0324 20009KT P6SM FEW050 SCT250
     FM030300 23009KT P6SM BKN050 BKN150
     FM030700 27007KT P6SM SCT050 SCT150
     FM031000 32009KT P6SM SCT250
KISP FCSTER COMMENTS: FUTURE AMENDMENTS COULD INCLUDE A ONE HOUR
TEMPO FOR -TSRA DEPENDING ON HOW THEY EVOLVE OVER NEXT 2-3 HOURS.
WINDS COULD BECOME MORE W-SW WEDNESDAY AFTERNOON. AMENDMENTS
POSSIBLE WEDNESDAY AFTERNOON.

*************************************************************************************
5 Day General Outlook:

.OUTLOOK FOR 00Z THU THROUGH SUN...
.WED NIGHT-FRI NIGHT...VFR.
.SAT-SUN...SUB-VFR PSBL IN SCT SHRA/TSRA.


Click the Print Icon print icon below to print the briefing sheet